sensor_id;sensor_type;location;lat;lon;timestamp;pressure;altitude;pressure_sealevel;temperature;humidity
16806;BME280;8520;50.102;20.010;2023-04-26T00:02:23;97592.34;;;7.34;81.57
16806;BME280;8520;50.102;20.010;2023-04-26T00:04:54;97587.97;;;7.27;80.95
16806;BME280;8520;50.102;20.010;2023-04-26T00:07:24;97591.97;;;7.26;80.87
16806;BME280;8520;50.102;20.010;2023-04-26T00:09:54;97595.94;;;7.25;81.15
16806;BME280;8520;50.102;20.010;2023-04-26T00:12:22;97590.38;;;7.05;81.69
16806;BME280;8520;50.102;20.010;2023-04-26T00:14:50;97588.47;;;7.26;80.82
16806;BME280;8520;50.102;20.010;2023-04-26T00:17:18;97586.66;;;7.23;80.57
16806;BME280;8520;50.102;20.010;2023-04-26T00:19:46;97595.38;;;7.36;79.25
16806;BME280;8520;50.102;20.010;2023-04-26T00:22:16;97596.50;;;7.30;79.83
16806;BME280;8520;50.102;20.010;2023-04-26T00:24:44;97602.00;;;7.15;79.86
16806;BME280;8520;50.102;20.010;2023-04-26T00:27:12;97592.16;;;7.23;79.67
16806;BME280;8520;50.102;20.010;2023-04-26T00:29:40;97597.91;;;7.10;80.59
16806;BME280;8520;50.102;20.010;2023-04-26T00:32:08;97601.06;;;7.33;79.52
16806;BME280;8520;50.102;20.010;2023-04-26T00:34:37;97601.97;;;6.85;80.34
16806;BME280;8520;50.102;20.010;2023-04-26T00:37:05;97618.66;;;7.26;78.65
16806;BME280;8520;50.102;20.010;2023-04-26T00:39:35;97595.44;;;7.12;79.12
16806;BME280;8520;50.102;20.010;2023-04-26T00:42:03;97604.44;;;7.27;78.29
16806;BME280;8520;50.102;20.010;2023-04-26T00:44:31;97593.84;;;7.06;77.85
16806;BME280;8520;50.102;20.010;2023-04-26T00:46:59;97599.53;;;6.87;79.01
16806;BME280;8520;50.102;20.010;2023-04-26T00:49:28;97612.38;;;6.81;78.54
16806;BME280;8520;50.102;20.010;2023-04-26T00:51:57;97591.50;;;6.98;77.08
16806;BME280;8520;50.102;20.010;2023-04-26T00:54:25;97604.03;;;6.76;76.62
16806;BME280;8520;50.102;20.010;2023-04-26T00:56:55;97598.88;;;7.07;75.72
16806;BME280;8520;50.102;20.010;2023-04-26T00:59:23;97608.88;;;6.81;76.15
16806;BME280;8520;50.102;20.010;2023-04-26T01:01:52;97615.13;;;6.96;75.02
16806;BME280;8520;50.102;20.010;2023-04-26T01:04:20;97604.06;;;7.20;74.02
16806;BME280;8520;50.102;20.010;2023-04-26T01:06:52;97599.50;;;7.02;74.70
16806;BME280;8520;50.102;20.010;2023-04-26T01:09:21;97619.88;;;7.25;73.23
16806;BME280;8520;50.102;20.010;2023-04-26T01:11:51;97621.56;;;7.08;72.46
16806;BME280;8520;50.102;20.010;2023-04-26T01:14:20;97620.78;;;6.92;73.69
16806;BME280;8520;50.102;20.010;2023-04-26T01:16:49;97619.63;;;6.69;74.11
16806;BME280;8520;50.102;20.010;2023-04-26T01:19:18;97626.50;;;6.65;74.27
16806;BME280;8520;50.102;20.010;2023-04-26T01:21:47;97633.63;;;6.72;73.97
16806;BME280;8520;50.102;20.010;2023-04-26T01:24:16;97642.06;;;6.44;74.42
16806;BME280;8520;50.102;20.010;2023-04-26T01:26:44;97631.31;;;6.31;74.68
16806;BME280;8520;50.102;20.010;2023-04-26T01:29:14;97634.16;;;6.61;73.71
16806;BME280;8520;50.102;20.010;2023-04-26T01:31:42;97648.13;;;6.24;73.37
16806;BME280;8520;50.102;20.010;2023-04-26T01:34:11;97643.72;;;6.65;70.88
16806;BME280;8520;50.102;20.010;2023-04-26T01:36:39;97644.72;;;6.29;71.56
16806;BME280;8520;50.102;20.010;2023-04-26T01:39:08;97656.09;;;6.61;70.64
16806;BME280;8520;50.102;20.010;2023-04-26T01:41:38;97649.34;;;6.86;69.72
16806;BME280;8520;50.102;20.010;2023-04-26T01:44:06;97648.22;;;6.54;70.18
16806;BME280;8520;50.102;20.010;2023-04-26T01:46:35;97639.94;;;6.63;69.47
16806;BME280;8520;50.102;20.010;2023-04-26T01:49:03;97648.31;;;6.11;70.80
16806;BME280;8520;50.102;20.010;2023-04-26T01:51:31;97645.16;;;5.80;71.83
16806;BME280;8520;50.102;20.010;2023-04-26T01:54:00;97656.94;;;5.62;73.12
16806;BME280;8520;50.102;20.010;2023-04-26T01:56:28;97646.38;;;5.79;72.07
16806;BME280;8520;50.102;20.010;2023-04-26T01:58:57;97650.56;;;5.56;72.33
16806;BME280;8520;50.102;20.010;2023-04-26T02:01:25;97655.84;;;5.69;72.56
16806;BME280;8520;50.102;20.010;2023-04-26T02:03:54;97663.34;;;5.59;72.13
16806;BME280;8520;50.102;20.010;2023-04-26T02:06:22;97653.00;;;5.54;72.00
16806;BME280;8520;50.102;20.010;2023-04-26T02:08:51;97666.09;;;5.50;72.06
16806;BME280;8520;50.102;20.010;2023-04-26T02:11:20;97666.97;;;5.56;71.64
16806;BME280;8520;50.102;20.010;2023-04-26T02:13:50;97666.16;;;5.22;71.45
16806;BME280;8520;50.102;20.010;2023-04-26T02:16:21;97660.69;;;5.13;71.63
16806;BME280;8520;50.102;20.010;2023-04-26T02:18:49;97668.44;;;5.15;71.81
16806;BME280;8520;50.102;20.010;2023-04-26T02:21:20;97662.34;;;5.20;71.42
16806;BME280;8520;50.102;20.010;2023-04-26T02:23:48;97662.69;;;4.94;71.99
16806;BME280;8520;50.102;20.010;2023-04-26T02:26:16;97672.72;;;4.97;72.16
16806;BME280;8520;50.102;20.010;2023-04-26T02:28:44;97672.38;;;4.86;72.87
16806;BME280;8520;50.102;20.010;2023-04-26T02:31:12;97668.56;;;5.11;72.53
16806;BME280;8520;50.102;20.010;2023-04-26T02:33:42;97670.09;;;4.94;72.89
16806;BME280;8520;50.102;20.010;2023-04-26T02:36:11;97666.91;;;4.86;73.64
16806;BME280;8520;50.102;20.010;2023-04-26T02:38:39;97670.72;;;4.98;73.64
16806;BME280;8520;50.102;20.010;2023-04-26T02:41:07;97668.25;;;4.63;74.75
16806;BME280;8520;50.102;20.010;2023-04-26T02:43:36;97670.72;;;4.89;74.30
16806;BME280;8520;50.102;20.010;2023-04-26T02:46:06;97664.94;;;5.23;73.67
16806;BME280;8520;50.102;20.010;2023-04-26T02:48:34;97668.59;;;5.02;74.26
16806;BME280;8520;50.102;20.010;2023-04-26T02:51:04;97672.97;;;4.54;75.43
16806;BME280;8520;50.102;20.010;2023-04-26T02:53:32;97674.94;;;4.44;76.06
16806;BME280;8520;50.102;20.010;2023-04-26T02:56:01;97681.63;;;4.52;76.34
16806;BME280;8520;50.102;20.010;2023-04-26T02:58:29;97677.50;;;4.48;76.05
16806;BME280;8520;50.102;20.010;2023-04-26T03:00:57;97688.78;;;4.68;75.82
16806;BME280;8520;50.102;20.010;2023-04-26T03:03:27;97681.91;;;4.45;76.39
16806;BME280;8520;50.102;20.010;2023-04-26T03:05:57;97681.00;;;4.57;76.89
16806;BME280;8520;50.102;20.010;2023-04-26T03:08:26;97690.72;;;4.40;76.74
16806;BME280;8520;50.102;20.010;2023-04-26T03:10:54;97678.44;;;4.72;75.97
16806;BME280;8520;50.102;20.010;2023-04-26T03:13:23;97684.19;;;4.56;76.81
16806;BME280;8520;50.102;20.010;2023-04-26T03:15:53;97685.09;;;4.43;77.44
16806;BME280;8520;50.102;20.010;2023-04-26T03:18:21;97686.03;;;4.50;77.33
16806;BME280;8520;50.102;20.010;2023-04-26T03:20:51;97689.16;;;4.39;78.13
16806;BME280;8520;50.102;20.010;2023-04-26T03:23:19;97705.84;;;4.23;78.78
16806;BME280;8520;50.102;20.010;2023-04-26T03:25:52;97697.25;;;4.02;79.57
16806;BME280;8520;50.102;20.010;2023-04-26T03:28:21;97697.66;;;4.23;79.47
16806;BME280;8520;50.102;20.010;2023-04-26T03:30:49;97696.75;;;4.35;78.75
16806;BME280;8520;50.102;20.010;2023-04-26T03:33:18;97704.75;;;4.20;79.22
16806;BME280;8520;50.102;20.010;2023-04-26T03:35:46;97711.00;;;4.30;78.81
16806;BME280;8520;50.102;20.010;2023-04-26T03:38:15;97709.88;;;4.09;79.84
16806;BME280;8520;50.102;20.010;2023-04-26T03:40:43;97727.81;;;4.19;79.36
16806;BME280;8520;50.102;20.010;2023-04-26T03:43:13;97720.88;;;4.27;79.66
16806;BME280;8520;50.102;20.010;2023-04-26T03:45:41;97720.19;;;4.05;80.11
16806;BME280;8520;50.102;20.010;2023-04-26T03:48:09;97736.34;;;4.21;80.47
16806;BME280;8520;50.102;20.010;2023-04-26T03:50:37;97730.47;;;4.41;79.93
16806;BME280;8520;50.102;20.010;2023-04-26T03:53:06;97736.66;;;3.92;81.20
16806;BME280;8520;50.102;20.010;2023-04-26T03:55:35;97732.75;;;4.02;81.38
16806;BME280;8520;50.102;20.010;2023-04-26T03:58:04;97727.94;;;4.06;80.67
16806;BME280;8520;50.102;20.010;2023-04-26T04:00:36;97734.75;;;3.71;81.15
16806;BME280;8520;50.102;20.010;2023-04-26T04:03:04;97739.69;;;3.63;81.90
16806;BME280;8520;50.102;20.010;2023-04-26T04:05:33;97746.78;;;3.82;81.55
16806;BME280;8520;50.102;20.010;2023-04-26T04:08:02;97748.97;;;3.66;82.25
16806;BME280;8520;50.102;20.010;2023-04-26T04:10:30;97756.19;;;3.81;81.52
16806;BME280;8520;50.102;20.010;2023-04-26T04:12:59;97750.44;;;3.57;82.14
16806;BME280;8520;50.102;20.010;2023-04-26T04:15:27;97756.06;;;3.63;81.87
16806;BME280;8520;50.102;20.010;2023-04-26T04:17:56;97746.63;;;3.77;81.95
16806;BME280;8520;50.102;20.010;2023-04-26T04:20:24;97759.41;;;3.58;82.26
16806;BME280;8520;50.102;20.010;2023-04-26T04:22:55;97764.34;;;3.50;82.41
16806;BME280;8520;50.102;20.010;2023-04-26T04:25:24;97763.88;;;3.52;82.91
16806;BME280;8520;50.102;20.010;2023-04-26T04:27:54;97764.97;;;3.54;82.67
16806;BME280;8520;50.102;20.010;2023-04-26T04:30:24;97769.78;;;3.50;83.11
16806;BME280;8520;50.102;20.010;2023-04-26T04:32:52;97771.28;;;3.73;81.59
16806;BME280;8520;50.102;20.010;2023-04-26T04:35:22;97772.38;;;3.54;82.16
16806;BME280;8520;50.102;20.010;2023-04-26T04:37:54;97773.19;;;3.64;82.58
16806;BME280;8520;50.102;20.010;2023-04-26T04:40:24;97778.50;;;3.58;82.61
16806;BME280;8520;50.102;20.010;2023-04-26T04:42:53;97778.72;;;3.95;81.58
16806;BME280;8520;50.102;20.010;2023-04-26T04:45:23;97781.84;;;3.40;83.23
16806;BME280;8520;50.102;20.010;2023-04-26T04:47:54;97789.13;;;3.87;81.44
16806;BME280;8520;50.102;20.010;2023-04-26T04:50:23;97787.31;;;3.40;82.64
16806;BME280;8520;50.102;20.010;2023-04-26T04:53:45;97793.91;;;3.52;81.63
16806;BME280;8520;50.102;20.010;2023-04-26T04:56:13;97791.44;;;3.67;81.50
16806;BME280;8520;50.102;20.010;2023-04-26T04:58:44;97793.06;;;3.64;82.06
16806;BME280;8520;50.102;20.010;2023-04-26T05:01:14;97802.78;;;3.65;80.95
16806;BME280;8520;50.102;20.010;2023-04-26T05:03:49;97795.72;;;3.55;81.09
16806;BME280;8520;50.102;20.010;2023-04-26T05:06:18;97811.22;;;3.80;81.09
16806;BME280;8520;50.102;20.010;2023-04-26T05:08:48;97808.50;;;3.80;80.95
16806;BME280;8520;50.102;20.010;2023-04-26T05:11:17;97802.84;;;3.74;81.25
16806;BME280;8520;50.102;20.010;2023-04-26T05:13:45;97808.28;;;3.74;80.44
16806;BME280;8520;50.102;20.010;2023-04-26T05:16:15;97800.53;;;3.95;80.51
16806;BME280;8520;50.102;20.010;2023-04-26T05:18:43;97808.31;;;4.36;78.30
16806;BME280;8520;50.102;20.010;2023-04-26T05:21:12;97809.22;;;4.33;77.45
16806;BME280;8520;50.102;20.010;2023-04-26T05:23:40;97807.50;;;4.27;78.36
16806;BME280;8520;50.102;20.010;2023-04-26T05:26:12;97809.63;;;4.23;77.88
16806;BME280;8520;50.102;20.010;2023-04-26T05:28:59;97816.91;;;4.26;77.79
16806;BME280;8520;50.102;20.010;2023-04-26T05:31:40;97817.03;;;4.53;76.17
16806;BME280;8520;50.102;20.010;2023-04-26T05:34:26;97818.09;;;4.56;76.38
16806;BME280;8520;50.102;20.010;2023-04-26T05:36:56;97818.25;;;4.52;77.43
16806;BME280;8520;50.102;20.010;2023-04-26T05:39:25;97826.63;;;4.58;76.44
16806;BME280;8520;50.102;20.010;2023-04-26T05:41:54;97827.22;;;4.53;76.82
16806;BME280;8520;50.102;20.010;2023-04-26T05:44:23;97822.81;;;4.95;75.09
16806;BME280;8520;50.102;20.010;2023-04-26T05:46:51;97825.31;;;4.81;74.05
16806;BME280;8520;50.102;20.010;2023-04-26T05:49:19;97845.63;;;5.20;72.49
16806;BME280;8520;50.102;20.010;2023-04-26T05:51:47;97831.06;;;5.23;71.66
16806;BME280;8520;50.102;20.010;2023-04-26T05:54:15;97836.94;;;5.21;71.47
16806;BME280;8520;50.102;20.010;2023-04-26T05:56:43;97850.59;;;5.03;70.34
16806;BME280;8520;50.102;20.010;2023-04-26T05:59:13;97844.00;;;5.50;69.10
16806;BME280;8520;50.102;20.010;2023-04-26T06:01:42;97833.63;;;5.45;69.64
16806;BME280;8520;50.102;20.010;2023-04-26T06:04:10;97845.03;;;5.71;67.65
16806;BME280;8520;50.102;20.010;2023-04-26T06:06:47;97860.41;;;5.50;68.82
16806;BME280;8520;50.102;20.010;2023-04-26T06:09:16;97851.28;;;5.53;69.05
16806;BME280;8520;50.102;20.010;2023-04-26T06:11:46;97827.56;;;5.77;68.57
16806;BME280;8520;50.102;20.010;2023-04-26T06:14:15;97831.19;;;5.65;68.50
16806;BME280;8520;50.102;20.010;2023-04-26T06:16:58;97831.63;;;5.82;68.96
16806;BME280;8520;50.102;20.010;2023-04-26T06:19:27;97855.38;;;5.67;67.89
16806;BME280;8520;50.102;20.010;2023-04-26T06:21:55;97850.28;;;6.11;67.04
16806;BME280;8520;50.102;20.010;2023-04-26T06:24:24;97848.50;;;6.08;66.71
16806;BME280;8520;50.102;20.010;2023-04-26T06:26:52;97823.25;;;6.46;68.57
16806;BME280;8520;50.102;20.010;2023-04-26T06:29:21;97839.59;;;6.22;67.55
16806;BME280;8520;50.102;20.010;2023-04-26T06:31:49;97827.84;;;6.31;66.95
16806;BME280;8520;50.102;20.010;2023-04-26T06:34:23;97843.72;;;6.27;66.23
16806;BME280;8520;50.102;20.010;2023-04-26T06:36:52;97833.09;;;6.62;64.97
16806;BME280;8520;50.102;20.010;2023-04-26T06:39:22;97825.34;;;6.60;64.68
16806;BME280;8520;50.102;20.010;2023-04-26T06:41:51;97834.25;;;6.37;65.18
16806;BME280;8520;50.102;20.010;2023-04-26T06:44:37;97824.34;;;6.39;64.67
16806;BME280;8520;50.102;20.010;2023-04-26T06:47:05;97846.47;;;6.27;62.30
16806;BME280;8520;50.102;20.010;2023-04-26T06:49:35;97840.38;;;6.32;65.00
16806;BME280;8520;50.102;20.010;2023-04-26T06:52:03;97841.31;;;6.62;63.87
16806;BME280;8520;50.102;20.010;2023-04-26T06:54:35;97847.72;;;6.17;63.44
16806;BME280;8520;50.102;20.010;2023-04-26T06:57:19;97849.81;;;6.64;63.39
16806;BME280;8520;50.102;20.010;2023-04-26T06:59:49;97862.56;;;6.76;63.70
16806;BME280;8520;50.102;20.010;2023-04-26T07:02:17;97845.50;;;6.39;64.87
16806;BME280;8520;50.102;20.010;2023-04-26T07:04:45;97853.19;;;6.92;63.81
16806;BME280;8520;50.102;20.010;2023-04-26T07:07:13;97841.09;;;6.41;64.46
16806;BME280;8520;50.102;20.010;2023-04-26T07:09:42;97875.03;;;6.44;63.60
16806;BME280;8520;50.102;20.010;2023-04-26T07:12:11;97865.69;;;6.60;61.78
16806;BME280;8520;50.102;20.010;2023-04-26T07:14:39;97864.78;;;6.54;63.55
16806;BME280;8520;50.102;20.010;2023-04-26T07:17:10;97867.13;;;6.79;61.22
16806;BME280;8520;50.102;20.010;2023-04-26T07:19:38;97856.47;;;6.81;62.84
16806;BME280;8520;50.102;20.010;2023-04-26T07:22:06;97850.03;;;6.84;61.64
16806;BME280;8520;50.102;20.010;2023-04-26T07:24:34;97865.00;;;6.41;61.05
16806;BME280;8520;50.102;20.010;2023-04-26T07:27:02;97883.63;;;6.70;62.10
16806;BME280;8520;50.102;20.010;2023-04-26T07:29:30;97868.03;;;7.09;59.48
16806;BME280;8520;50.102;20.010;2023-04-26T07:31:59;97852.38;;;7.01;59.98
16806;BME280;8520;50.102;20.010;2023-04-26T07:34:28;97875.38;;;7.03;60.54
16806;BME280;8520;50.102;20.010;2023-04-26T07:36:56;97875.69;;;7.05;60.68
16806;BME280;8520;50.102;20.010;2023-04-26T07:39:24;97870.56;;;6.98;59.92
16806;BME280;8520;50.102;20.010;2023-04-26T07:41:52;97848.59;;;7.22;58.45
16806;BME280;8520;50.102;20.010;2023-04-26T07:44:20;97878.97;;;6.52;59.92
16806;BME280;8520;50.102;20.010;2023-04-26T07:46:48;97868.81;;;6.34;59.97
16806;BME280;8520;50.102;20.010;2023-04-26T07:49:17;97862.13;;;7.02;57.68
16806;BME280;8520;50.102;20.010;2023-04-26T07:51:47;97877.44;;;7.17;58.26
16806;BME280;8520;50.102;20.010;2023-04-26T07:54:17;97880.94;;;7.18;58.19
16806;BME280;8520;50.102;20.010;2023-04-26T07:56:45;97895.28;;;6.89;59.70
16806;BME280;8520;50.102;20.010;2023-04-26T07:59:13;97872.44;;;7.64;56.99
16806;BME280;8520;50.102;20.010;2023-04-26T08:01:41;97870.44;;;7.40;58.04
16806;BME280;8520;50.102;20.010;2023-04-26T08:04:09;97920.97;;;7.01;54.99
16806;BME280;8520;50.102;20.010;2023-04-26T08:06:37;97898.41;;;7.30;54.99
16806;BME280;8520;50.102;20.010;2023-04-26T08:09:11;97898.91;;;7.52;54.72
16806;BME280;8520;50.102;20.010;2023-04-26T08:11:40;97867.63;;;7.73;56.36
16806;BME280;8520;50.102;20.010;2023-04-26T08:14:08;97899.00;;;7.58;52.85
16806;BME280;8520;50.102;20.010;2023-04-26T08:16:37;97888.28;;;7.69;53.72
16806;BME280;8520;50.102;20.010;2023-04-26T08:19:05;97881.28;;;7.82;55.08
16806;BME280;8520;50.102;20.010;2023-04-26T08:21:33;97877.81;;;7.97;55.89
16806;BME280;8520;50.102;20.010;2023-04-26T08:24:01;97934.91;;;7.54;54.41
16806;BME280;8520;50.102;20.010;2023-04-26T08:26:31;97916.84;;;7.38;52.63
16806;BME280;8520;50.102;20.010;2023-04-26T08:28:59;97907.34;;;7.15;53.11
16806;BME280;8520;50.102;20.010;2023-04-26T08:31:27;97881.84;;;7.48;54.49
16806;BME280;8520;50.102;20.010;2023-04-26T08:33:55;97886.91;;;8.03;53.75
16806;BME280;8520;50.102;20.010;2023-04-26T08:36:23;97924.69;;;7.54;54.23
16806;BME280;8520;50.102;20.010;2023-04-26T08:38:51;97877.38;;;7.74;54.69
16806;BME280;8520;50.102;20.010;2023-04-26T08:41:22;97895.97;;;7.79;54.52
16806;BME280;8520;50.102;20.010;2023-04-26T08:43:53;97894.91;;;7.77;56.29
16806;BME280;8520;50.102;20.010;2023-04-26T08:46:25;97894.47;;;7.54;55.70
16806;BME280;8520;50.102;20.010;2023-04-26T08:48:58;97889.03;;;7.45;54.29
16806;BME280;8520;50.102;20.010;2023-04-26T08:51:32;97903.91;;;7.30;55.18
16806;BME280;8520;50.102;20.010;2023-04-26T08:54:03;97891.31;;;7.23;54.56
16806;BME280;8520;50.102;20.010;2023-04-26T08:56:32;97886.16;;;8.17;54.68
16806;BME280;8520;50.102;20.010;2023-04-26T08:59:03;97879.69;;;7.52;55.19
16806;BME280;8520;50.102;20.010;2023-04-26T09:01:32;97908.63;;;7.05;53.96
16806;BME280;8520;50.102;20.010;2023-04-26T09:04:00;97904.09;;;7.74;52.66
16806;BME280;8520;50.102;20.010;2023-04-26T09:06:29;97890.47;;;7.94;52.76
16806;BME280;8520;50.102;20.010;2023-04-26T09:08:57;97912.13;;;8.16;53.66
16806;BME280;8520;50.102;20.010;2023-04-26T09:11:26;97908.25;;;7.45;55.25
16806;BME280;8520;50.102;20.010;2023-04-26T09:13:54;97889.00;;;8.08;54.60
16806;BME280;8520;50.102;20.010;2023-04-26T09:16:34;97891.31;;;7.86;55.88
16806;BME280;8520;50.102;20.010;2023-04-26T09:19:03;97894.13;;;8.30;56.84
16806;BME280;8520;50.102;20.010;2023-04-26T09:21:31;97896.38;;;8.31;54.62
16806;BME280;8520;50.102;20.010;2023-04-26T09:24:00;97944.78;;;7.61;55.70
16806;BME280;8520;50.102;20.010;2023-04-26T09:26:30;97944.88;;;7.09;58.37
16806;BME280;8520;50.102;20.010;2023-04-26T09:29:11;97944.31;;;6.45;61.51
16806;BME280;8520;50.102;20.010;2023-04-26T09:31:42;97905.06;;;7.14;59.70
16806;BME280;8520;50.102;20.010;2023-04-26T09:34:15;97909.19;;;7.66;60.03
16806;BME280;8520;50.102;20.010;2023-04-26T09:36:47;97897.38;;;7.75;59.81
16806;BME280;8520;50.102;20.010;2023-04-26T09:39:29;97885.28;;;8.11;59.11
16806;BME280;8520;50.102;20.010;2023-04-26T09:41:58;97933.31;;;7.38;60.81
16806;BME280;8520;50.102;20.010;2023-04-26T09:44:28;97940.00;;;7.04;63.13
16806;BME280;8520;50.102;20.010;2023-04-26T09:46:59;97926.19;;;6.47;67.68
16806;BME280;8520;50.102;20.010;2023-04-26T09:49:31;97929.44;;;6.27;67.20
16806;BME280;8520;50.102;20.010;2023-04-26T09:52:01;97939.16;;;6.28;65.88
16806;BME280;8520;50.102;20.010;2023-04-26T09:54:43;97911.44;;;6.35;63.99
16806;BME280;8520;50.102;20.010;2023-04-26T09:57:12;97906.56;;;6.39;59.65
16806;BME280;8520;50.102;20.010;2023-04-26T09:59:42;97912.16;;;6.54;59.63
16806;BME280;8520;50.102;20.010;2023-04-26T10:02:20;97917.09;;;6.41;59.78
16806;BME280;8520;50.102;20.010;2023-04-26T10:04:50;97926.56;;;6.73;61.04
16806;BME280;8520;50.102;20.010;2023-04-26T10:07:20;97911.50;;;6.78;60.46
16806;BME280;8520;50.102;20.010;2023-04-26T10:09:49;97903.44;;;6.65;61.62
16806;BME280;8520;50.102;20.010;2023-04-26T10:12:18;97900.22;;;7.09;58.54
16806;BME280;8520;50.102;20.010;2023-04-26T10:14:47;97917.66;;;6.54;59.49
16806;BME280;8520;50.102;20.010;2023-04-26T10:17:19;97898.31;;;7.24;59.93
16806;BME280;8520;50.102;20.010;2023-04-26T10:19:51;97912.88;;;6.73;58.72
16806;BME280;8520;50.102;20.010;2023-04-26T10:22:21;97899.63;;;7.05;56.86
16806;BME280;8520;50.102;20.010;2023-04-26T10:24:52;97887.41;;;7.77;57.41
16806;BME280;8520;50.102;20.010;2023-04-26T10:27:47;97897.38;;;7.27;56.72
16806;BME280;8520;50.102;20.010;2023-04-26T10:30:16;97909.66;;;7.65;56.38
16806;BME280;8520;50.102;20.010;2023-04-26T10:33:16;97896.94;;;7.52;56.49
16806;BME280;8520;50.102;20.010;2023-04-26T10:36:07;97907.50;;;7.45;57.31
16806;BME280;8520;50.102;20.010;2023-04-26T10:38:37;97900.09;;;7.36;56.41
16806;BME280;8520;50.102;20.010;2023-04-26T10:41:32;97910.47;;;7.95;54.86
16806;BME280;8520;50.102;20.010;2023-04-26T10:47:04;97926.25;;;7.70;55.81
16806;BME280;8520;50.102;20.010;2023-04-26T10:49:44;97906.09;;;7.49;56.60
16806;BME280;8520;50.102;20.010;2023-04-26T10:52:15;97979.28;;;7.19;59.12
16806;BME280;8520;50.102;20.010;2023-04-26T10:54:49;97938.75;;;6.81;61.83
16806;BME280;8520;50.102;20.010;2023-04-26T10:57:18;97936.06;;;7.05;60.63
16806;BME280;8520;50.102;20.010;2023-04-26T11:00:19;97919.88;;;7.64;58.35
16806;BME280;8520;50.102;20.010;2023-04-26T11:02:58;97943.72;;;7.58;62.07
16806;BME280;8520;50.102;20.010;2023-04-26T11:05:35;97920.94;;;7.43;59.49
16806;BME280;8520;50.102;20.010;2023-04-26T11:08:05;97924.84;;;8.28;58.66
16806;BME280;8520;50.102;20.010;2023-04-26T11:10:36;97924.00;;;8.37;53.58
16806;BME280;8520;50.102;20.010;2023-04-26T11:13:05;97924.13;;;8.04;50.99
16806;BME280;8520;50.102;20.010;2023-04-26T11:15:34;97895.16;;;8.32;52.94
16806;BME280;8520;50.102;20.010;2023-04-26T11:18:03;97932.88;;;8.32;53.14
16806;BME280;8520;50.102;20.010;2023-04-26T11:20:32;97909.66;;;7.65;52.79
16806;BME280;8520;50.102;20.010;2023-04-26T11:23:01;97940.88;;;7.52;52.64
16806;BME280;8520;50.102;20.010;2023-04-26T11:25:30;97941.09;;;7.64;52.14
16806;BME280;8520;50.102;20.010;2023-04-26T11:27:59;97911.16;;;7.66;52.83
16806;BME280;8520;50.102;20.010;2023-04-26T11:30:28;97916.56;;;7.99;54.24
16806;BME280;8520;50.102;20.010;2023-04-26T11:32:57;97943.16;;;8.46;55.76
16806;BME280;8520;50.102;20.010;2023-04-26T11:35:26;97979.72;;;7.60;55.45
16806;BME280;8520;50.102;20.010;2023-04-26T11:37:57;97951.38;;;7.21;57.20
16806;BME280;8520;50.102;20.010;2023-04-26T11:40:29;97956.44;;;7.13;60.43
16806;BME280;8520;50.102;20.010;2023-04-26T11:43:01;97944.88;;;7.66;59.79
16806;BME280;8520;50.102;20.010;2023-04-26T11:45:31;97941.16;;;7.78;56.31
16806;BME280;8520;50.102;20.010;2023-04-26T11:48:00;97941.28;;;7.99;55.76
16806;BME280;8520;50.102;20.010;2023-04-26T11:50:30;97899.91;;;8.17;55.08
16806;BME280;8520;50.102;20.010;2023-04-26T11:53:00;97935.91;;;8.78;55.14
16806;BME280;8520;50.102;20.010;2023-04-26T11:55:31;97973.31;;;8.55;53.45
16806;BME280;8520;50.102;20.010;2023-04-26T11:58:00;97962.28;;;7.06;62.23
16806;BME280;8520;50.102;20.010;2023-04-26T12:00:29;97957.16;;;6.90;63.79
16806;BME280;8520;50.102;20.010;2023-04-26T12:03:04;97975.94;;;6.73;65.92
16806;BME280;8520;50.102;20.010;2023-04-26T12:05:33;97968.03;;;6.57;65.22
16806;BME280;8520;50.102;20.010;2023-04-26T12:08:01;97976.97;;;7.27;63.68
16806;BME280;8520;50.102;20.010;2023-04-26T12:10:34;97967.72;;;7.48;62.68
16806;BME280;8520;50.102;20.010;2023-04-26T12:13:02;97927.28;;;7.97;60.11
16806;BME280;8520;50.102;20.010;2023-04-26T12:15:31;97937.19;;;8.33;57.17
16806;BME280;8520;50.102;20.010;2023-04-26T12:18:06;97988.78;;;8.67;53.97
16806;BME280;8520;50.102;20.010;2023-04-26T12:20:37;97955.19;;;8.93;51.99
16806;BME280;8520;50.102;20.010;2023-04-26T12:23:07;97968.56;;;9.50;49.41
16806;BME280;8520;50.102;20.010;2023-04-26T12:25:38;97958.50;;;8.82;49.12
16806;BME280;8520;50.102;20.010;2023-04-26T12:28:08;97945.22;;;8.66;50.88
16806;BME280;8520;50.102;20.010;2023-04-26T12:30:39;97929.66;;;8.78;51.52
16806;BME280;8520;50.102;20.010;2023-04-26T12:33:07;97922.56;;;7.73;56.65
16806;BME280;8520;50.102;20.010;2023-04-26T12:35:43;97979.13;;;7.23;62.35
16806;BME280;8520;50.102;20.010;2023-04-26T12:38:11;97975.63;;;7.13;62.16
16806;BME280;8520;50.102;20.010;2023-04-26T12:40:42;97986.84;;;6.91;63.15
16806;BME280;8520;50.102;20.010;2023-04-26T12:43:12;97961.81;;;7.08;62.08
16806;BME280;8520;50.102;20.010;2023-04-26T12:45:41;97963.75;;;7.49;58.23
16806;BME280;8520;50.102;20.010;2023-04-26T12:48:09;97960.19;;;7.82;59.01
16806;BME280;8520;50.102;20.010;2023-04-26T12:50:38;97961.75;;;8.66;56.15
16806;BME280;8520;50.102;20.010;2023-04-26T12:53:06;97953.13;;;9.38;53.48
16806;BME280;8520;50.102;20.010;2023-04-26T12:55:36;97945.72;;;10.31;50.74
16806;BME280;8520;50.102;20.010;2023-04-26T12:58:06;97969.63;;;10.65;49.51
16806;BME280;8520;50.102;20.010;2023-04-26T13:00:34;97946.56;;;10.43;50.61
16806;BME280;8520;50.102;20.010;2023-04-26T13:03:02;97968.63;;;9.96;51.07
16806;BME280;8520;50.102;20.010;2023-04-26T13:05:31;97971.16;;;9.39;51.66
16806;BME280;8520;50.102;20.010;2023-04-26T13:07:59;97975.50;;;8.51;49.71
16806;BME280;8520;50.102;20.010;2023-04-26T13:10:27;97981.34;;;9.18;49.44
16806;BME280;8520;50.102;20.010;2023-04-26T13:12:55;97980.50;;;9.82;49.74
16806;BME280;8520;50.102;20.010;2023-04-26T13:15:26;97993.53;;;8.82;47.40
16806;BME280;8520;50.102;20.010;2023-04-26T13:17:55;97963.72;;;8.95;48.31
16806;BME280;8520;50.102;20.010;2023-04-26T13:20:23;97966.75;;;9.47;47.63
16806;BME280;8520;50.102;20.010;2023-04-26T13:22:55;97963.19;;;10.22;48.33
16806;BME280;8520;50.102;20.010;2023-04-26T13:25:24;97983.81;;;9.16;48.69
16806;BME280;8520;50.102;20.010;2023-04-26T13:27:52;97984.69;;;8.78;49.40
16806;BME280;8520;50.102;20.010;2023-04-26T13:30:21;97954.63;;;8.89;46.28